Time;durP1;ratioP1;P1;durP2;ratioP2;P2;SDS_P1;SDS_P2;PMS_P1;PMS_P2;Temp;Humidity;BMP_temperature;BMP_pressure;BME280_temperature;BME280_humidity;BME280_pressure;Samples;Min_cycle;Max_cycle;Signal;HPM_P1;HPM_P2
2022/03/30 00:02:48;;;;;;;10.17;8.33;;;16.40;22.10;;;;;;10362531;28;20236;-75
2022/03/30 00:07:52;;;;;;;12.93;9.33;;;16.40;22.30;;;;;;10351338;28;20286;-75
2022/03/30 00:12:56;;;;;;;11.83;9.67;;;16.30;22.40;;;;;;10362892;28;20601;-75
2022/03/30 00:18:01;;;;;;;15.93;9.67;;;16.30;22.00;;;;;;10356209;28;20283;-75
2022/03/30 00:23:04;;;;;;;11.60;9.33;;;16.20;22.20;;;;;;10348776;28;20242;-75
2022/03/30 00:28:08;;;;;;;14.07;10.13;;;16.20;22.00;;;;;;10349138;28;20266;-75
2022/03/30 00:33:12;;;;;;;11.97;9.70;;;16.10;22.10;;;;;;10353671;28;20610;-76
2022/03/30 00:38:16;;;;;;;12.80;9.93;;;16.00;22.60;;;;;;10353336;28;20601;-76
2022/03/30 00:43:19;;;;;;;16.03;10.27;;;16.00;22.60;;;;;;10353736;28;20592;-76
2022/03/30 00:48:23;;;;;;;14.03;10.07;;;16.00;22.60;;;;;;10354376;28;20238;-76
2022/03/30 00:53:27;;;;;;;15.37;10.87;;;16.00;22.60;;;;;;10352334;28;20234;-76
2022/03/30 00:58:30;;;;;;;14.77;10.07;;;16.00;22.60;;;;;;10360450;28;20244;-76
2022/03/30 01:03:35;;;;;;;12.10;9.33;;;15.90;22.50;;;;;;10359196;28;20229;-76
2022/03/30 01:08:38;;;;;;;9.87;8.63;;;15.90;22.50;;;;;;10353968;28;20258;-75
2022/03/30 01:13:42;;;;;;;14.57;9.50;;;15.90;22.50;;;;;;10356065;28;20753;-76
2022/03/30 01:19:09;;;;;;;11.77;9.50;;;15.80;22.50;;;;;;10354894;28;20237;-76
2022/03/30 01:24:14;;;;;;;11.10;8.93;;;15.80;22.90;;;;;;10358667;28;20233;-76
2022/03/30 01:34:38;;;;;;;14.00;9.57;;;15.80;22.50;;;;;;10356085;28;20710;-75
2022/03/30 01:39:43;;;;;;;12.97;9.63;;;15.70;22.60;;;;;;10360960;28;20500;-75
2022/03/30 01:44:46;;;;;;;14.17;9.10;;;15.70;23.10;;;;;;10359623;28;20237;-75
2022/03/30 01:49:49;;;;;;;12.27;9.30;;;15.70;22.70;;;;;;10359749;28;20230;-75
2022/03/30 01:54:54;;;;;;;12.80;8.83;;;15.70;22.90;;;;;;10352744;28;20230;-75
2022/03/30 01:59:57;;;;;;;11.20;7.47;;;15.60;23.20;;;;;;10351991;28;20722;-75
2022/03/30 02:05:00;;;;;;;13.53;8.97;;;15.60;22.80;;;;;;10352408;28;20227;-75
2022/03/30 02:10:07;;;;;;;8.47;6.77;;;15.50;23.00;;;;;;10347309;28;20236;-75
2022/03/30 02:15:11;;;;;;;11.77;7.03;;;15.50;23.20;;;;;;10359951;28;20234;-75
2022/03/30 02:20:14;;;;;;;11.63;7.30;;;15.50;23.00;;;;;;10354255;28;20618;-76
2022/03/30 02:25:19;;;;;;;15.43;9.20;;;15.50;23.10;;;;;;10355348;28;20277;-76
2022/03/30 02:30:22;;;;;;;14.67;8.87;;;15.40;23.60;;;;;;10349248;28;20238;-76
2022/03/30 02:35:25;;;;;;;13.87;8.97;;;15.30;23.30;;;;;;10358924;28;20254;-75
2022/03/30 02:40:30;;;;;;;13.10;8.80;;;15.30;23.50;;;;;;10354446;28;20732;-76
2022/03/30 02:45:33;;;;;;;16.23;8.47;;;15.20;23.80;;;;;;10347471;28;20237;-76
2022/03/30 02:50:36;;;;;;;17.17;7.73;;;15.20;23.60;;;;;;10342137;28;20245;-76
2022/03/30 02:55:43;;;;;;;14.00;8.67;;;15.10;23.60;;;;;;10354216;28;20238;-75
2022/03/30 03:00:47;;;;;;;15.70;8.90;;;15.10;24.50;;;;;;10355056;28;20230;-76
2022/03/30 03:05:52;;;;;;;11.80;7.90;;;15.00;23.90;;;;;;10342577;28;20337;-76
2022/03/30 03:10:57;;;;;;;15.33;8.50;;;15.00;23.90;;;;;;10359723;28;20236;-75
2022/03/30 03:16:00;;;;;;;10.50;7.33;;;15.00;24.30;;;;;;10348255;28;20241;-76
2022/03/30 03:21:04;;;;;;;11.37;7.03;;;14.90;24.00;;;;;;10360777;28;20639;-76
2022/03/30 03:26:08;;;;;;;9.77;7.60;;;14.90;24.00;;;;;;10348453;28;20242;-75
2022/03/30 03:31:12;;;;;;;12.23;8.50;;;14.90;24.40;;;;;;10367170;28;20263;-76
2022/03/30 03:36:15;;;;;;;12.73;8.97;;;14.80;24.20;;;;;;10355786;28;20584;-76
2022/03/30 03:41:20;;;;;;;14.47;7.90;;;14.80;24.40;;;;;;10360308;28;20750;-76
2022/03/30 03:46:23;;;;;;;14.03;8.67;;;14.70;24.60;;;;;;10363332;28;20234;-75
2022/03/30 03:51:29;;;;;;;14.27;8.97;;;14.70;24.50;;;;;;10353348;28;20242;-75
2022/03/30 03:56:33;;;;;;;11.33;7.73;;;14.70;24.70;;;;;;10348622;28;20226;-75
2022/03/30 04:01:54;;;;;;;10.57;7.53;;;14.60;24.90;;;;;;10353646;28;20680;-75
2022/03/30 04:07:08;;;;;;;17.13;9.83;;;14.60;25.60;;;;;;10346574;28;20698;-75
2022/03/30 04:12:13;;;;;;;15.87;10.30;;;14.60;24.90;;;;;;10353414;28;20272;-75
2022/03/30 04:17:16;;;;;;;21.07;12.20;;;14.60;25.20;;;;;;10356118;28;20242;-75
2022/03/30 04:22:19;;;;;;;18.53;11.90;;;14.50;25.00;;;;;;10355399;28;20625;-75
2022/03/30 04:27:24;;;;;;;13.63;10.13;;;14.50;25.00;;;;;;10358701;28;20246;-75
2022/03/30 04:32:27;;;;;;;14.07;9.20;;;14.50;25.40;;;;;;10353046;28;20256;-75
2022/03/30 04:37:30;;;;;;;12.87;8.33;;;14.50;25.10;;;;;;10355243;28;20232;-75
2022/03/30 04:42:35;;;;;;;13.17;8.33;;;14.50;25.10;;;;;;10357671;28;20238;-76
2022/03/30 04:47:38;;;;;;;13.00;9.10;;;14.50;25.40;;;;;;10349392;28;20234;-76
2022/03/30 04:52:42;;;;;;;16.53;9.60;;;14.40;25.30;;;;;;10356697;28;20230;-76
2022/03/30 04:57:47;;;;;;;18.07;11.13;;;14.40;25.50;;;;;;10346921;28;20238;-75
2022/03/30 05:02:51;;;;;;;15.53;11.03;;;14.30;25.70;;;;;;10340753;28;20427;-75
2022/03/30 05:07:55;;;;;;;15.57;10.63;;;14.20;25.40;;;;;;10343323;28;20231;-76
2022/03/30 05:13:02;;;;;;;19.30;10.67;;;14.20;25.50;;;;;;10344228;28;20595;-74
2022/03/30 05:18:06;;;;;;;21.70;11.90;;;14.20;26.10;;;;;;10341531;28;20234;-74
2022/03/30 05:23:10;;;;;;;17.47;11.73;;;14.20;25.90;;;;;;10349401;28;20281;-73
2022/03/30 05:28:14;;;;;;;20.80;11.70;;;14.20;25.80;;;;;;10352449;28;20711;-75
2022/03/30 05:33:18;;;;;;;22.37;15.27;;;14.20;26.10;;;;;;10338205;28;20219;-75
2022/03/30 05:38:22;;;;;;;25.63;14.77;;;14.10;25.80;;;;;;10339222;28;20242;-75
2022/03/30 05:43:26;;;;;;;23.33;14.03;;;14.10;25.90;;;;;;10340462;28;20237;-76
2022/03/30 05:48:29;;;;;;;20.33;12.03;;;14.10;26.30;;;;;;10339415;28;20239;-76
2022/03/30 05:53:32;;;;;;;14.83;10.40;;;14.10;26.10;;;;;;10340837;28;20230;-73
2022/03/30 05:58:37;;;;;;;16.47;9.70;;;14.10;26.10;;;;;;10341740;28;20226;-74
2022/03/30 06:03:40;;;;;;;14.30;10.40;;;14.10;26.60;;;;;;10345491;28;20723;-73
2022/03/30 06:08:49;;;;;;;16.33;10.20;;;14.10;26.90;;;;;;10343311;28;20299;-73
2022/03/30 06:13:56;;;;;;;16.33;9.77;;;14.10;26.30;;;;;;10337354;28;20230;-74
2022/03/30 06:18:59;;;;;;;18.20;8.40;;;14.10;26.80;;;;;;10346412;28;20810;-75
2022/03/30 06:24:03;;;;;;;19.30;8.07;;;14.20;26.30;;;;;;10344522;28;20231;-77
2022/03/30 06:29:07;;;;;;;15.90;7.70;;;14.20;26.30;;;;;;10340480;28;20620;-75
2022/03/30 06:34:11;;;;;;;17.13;7.60;;;14.10;26.60;;;;;;10345285;28;20258;-75
2022/03/30 06:39:14;;;;;;;17.43;7.67;;;14.20;26.60;;;;;;10336824;28;20234;-75
2022/03/30 06:44:18;;;;;;;12.03;7.33;;;14.20;26.70;;;;;;10335775;28;20680;-76
2022/03/30 06:49:22;;;;;;;19.17;7.60;;;14.10;27.20;;;;;;10342832;28;20248;-76
2022/03/30 06:54:25;;;;;;;15.10;6.60;;;14.20;26.80;;;;;;10335323;28;20234;-76
2022/03/30 06:59:30;;;;;;;23.37;7.00;;;14.20;26.80;;;;;;10337912;28;20227;-76
2022/03/30 07:04:35;;;;;;;14.43;6.70;;;14.20;27.10;;;;;;10339146;28;20233;-76
2022/03/30 07:15:01;;;;;;;23.90;6.53;;;14.30;27.10;;;;;;10340472;28;20750;-78
2022/03/30 07:20:05;;;;;;;19.67;7.00;;;14.30;27.20;;;;;;10342957;28;20233;-77
2022/03/30 07:25:09;;;;;;;16.20;7.00;;;14.30;27.20;;;;;;10338324;28;20276;-78
2022/03/30 07:30:16;;;;;;;18.37;7.03;;;14.40;27.90;;;;;;10336913;28;20234;-78
2022/03/30 07:35:22;;;;;;;17.40;6.97;;;14.40;27.80;;;;;;10340005;28;20233;-78
2022/03/30 07:40:25;;;;;;;18.23;6.80;;;14.30;27.70;;;;;;10339603;28;20234;-78
2022/03/30 07:45:30;;;;;;;21.67;7.87;;;14.30;27.50;;;;;;10338716;28;20237;-78
2022/03/30 07:50:33;;;;;;;17.00;7.70;;;14.30;28.10;;;;;;10339890;28;21270;-78
2022/03/30 07:55:38;;;;;;;20.33;7.30;;;14.20;27.90;;;;;;10338470;28;20234;-78
2022/03/30 08:00:43;;;;;;;17.93;7.40;;;14.30;28.00;;;;;;10338698;28;20238;-78
2022/03/30 08:05:46;;;;;;;16.67;6.63;;;14.20;28.50;;;;;;10337991;28;20241;-78
2022/03/30 08:10:49;;;;;;;19.70;7.37;;;14.20;28.30;;;;;;10338464;28;20230;-78
2022/03/30 08:15:54;;;;;;;16.40;7.60;;;14.20;28.40;;;;;;10334757;28;20223;-78
2022/03/30 08:26:20;;;;;;;18.33;7.90;;;14.30;28.60;;;;;;10342243;28;20230;-79
2022/03/30 08:31:24;;;;;;;19.90;7.17;;;14.30;28.80;;;;;;10339912;28;20613;-79
2022/03/30 08:36:29;;;;;;;22.83;9.17;;;14.30;29.30;;;;;;10343854;28;20691;-78
2022/03/30 08:41:32;;;;;;;36.77;19.10;;;14.30;29.00;;;;;;10345089;28;20230;-78
2022/03/30 08:46:38;;;;;;;26.27;12.93;;;14.30;28.90;;;;;;10345180;28;20656;-78
2022/03/30 08:51:47;;;;;;;17.43;7.87;;;14.30;29.70;;;;;;10350041;28;20227;-77
2022/03/30 08:56:50;;;;;;;17.83;10.13;;;14.20;29.80;;;;;;10344431;28;20765;-77
2022/03/30 09:01:57;;;;;;;30.53;15.27;;;14.20;29.50;;;;;;10344072;28;20608;-78
2022/03/30 09:07:01;;;;;;;19.20;9.13;;;14.20;30.40;;;;;;10341640;28;20226;-78
2022/03/30 09:12:08;;;;;;;16.77;7.67;;;14.20;29.80;;;;;;10342348;28;20599;-78
2022/03/30 09:17:13;;;;;;;15.67;6.70;;;14.10;31.40;;;;;;10347441;28;20657;-78
2022/03/30 09:22:16;;;;;;;20.00;6.47;;;14.20;30.30;;;;;;10344458;28;20782;-76
2022/03/30 09:27:22;;;;;;;18.10;6.60;;;14.10;30.00;;;;;;10348080;28;20222;-76
2022/03/30 09:32:26;;;;;;;15.07;6.30;;;14.10;30.30;;;;;;10345682;28;20238;-76
2022/03/30 09:37:29;;;;;;;20.57;7.27;;;14.00;31.20;;;;;;10343163;28;20230;-76
2022/03/30 09:42:33;;;;;;;17.20;6.60;;;14.10;31.30;;;;;;10347956;28;20226;-76
2022/03/30 09:47:41;;;;;;;13.23;6.17;;;14.20;31.20;;;;;;10343386;28;20238;-76
2022/03/30 09:52:51;;;;;;;17.23;6.37;;;14.30;31.20;;;;;;10344730;28;20242;-75
2022/03/30 09:58:06;;;;;;;12.53;6.80;;;14.30;30.80;;;;;;10339328;28;20742;-79
2022/03/30 10:03:11;;;;;;;20.20;7.37;;;14.40;31.60;;;;;;10345841;28;20249;-79
2022/03/30 10:08:16;;;;;;;16.33;6.93;;;14.50;31.50;;;;;;10347304;28;20231;-78
2022/03/30 10:13:20;;;;;;;14.97;7.10;;;14.60;30.60;;;;;;10346622;28;20227;-78
2022/03/30 10:18:25;;;;;;;13.50;6.83;;;14.60;30.60;;;;;;10341721;28;20277;-79
2022/03/30 10:23:38;;;;;;;17.43;6.47;;;14.60;31.60;;;;;;10335813;28;20226;-79
2022/03/30 10:28:51;;;;;;;15.67;6.83;;;14.70;31.80;;;;;;10340382;28;20273;-78
2022/03/30 10:33:55;;;;;;;15.83;6.80;;;14.70;31.80;;;;;;10344378;28;20226;-78
2022/03/30 10:39:27;;;;;;;17.70;7.07;;;14.70;31.40;;;;;;10343722;28;20234;-74
2022/03/30 10:44:51;;;;;;;15.97;6.63;;;14.80;31.90;;;;;;10337593;28;20245;-74
2022/03/30 10:49:56;;;;;;;14.93;6.70;;;14.80;31.20;;;;;;10334464;28;20237;-75
2022/03/30 10:55:28;;;;;;;13.20;6.60;;;14.80;31.90;;;;;;10344112;28;20421;-75
2022/03/30 11:00:34;;;;;;;15.87;6.50;;;14.80;32.40;;;;;;10345950;28;20222;-74
2022/03/30 11:05:40;;;;;;;13.83;6.67;;;14.90;32.00;;;;;;10343990;28;20315;-74
2022/03/30 11:10:48;;;;;;;13.57;6.37;;;15.00;32.10;;;;;;10340349;28;20731;-74
2022/03/30 11:16:11;;;;;;;14.37;6.77;;;15.10;32.20;;;;;;10338030;28;20582;-73
2022/03/30 11:21:18;;;;;;;12.87;6.10;;;15.10;32.20;;;;;;10332894;28;20627;-74
2022/03/30 11:26:21;;;;;;;19.03;7.20;;;15.10;32.20;;;;;;10334044;28;20228;-75
2022/03/30 11:31:24;;;;;;;15.87;6.80;;;15.00;32.00;;;;;;10332092;28;20234;-75
2022/03/30 11:36:32;;;;;;;18.17;7.40;;;15.10;32.00;;;;;;10336809;28;20242;-75
2022/03/30 11:41:36;;;;;;;16.13;7.13;;;15.00;32.10;;;;;;10353540;28;20230;-75
2022/03/30 11:46:39;;;;;;;17.40;8.13;;;14.90;32.00;;;;;;10347759;28;20323;-75
2022/03/30 11:51:44;;;;;;;14.77;7.30;;;14.90;32.00;;;;;;10354203;28;20622;-75
2022/03/30 11:56:51;;;;;;;13.50;7.33;;;14.90;32.00;;;;;;10358863;28;20244;-75
2022/03/30 12:01:54;;;;;;;16.77;7.70;;;14.90;32.00;;;;;;10347820;28;20234;-75
2022/03/30 12:06:59;;;;;;;14.43;7.40;;;14.90;32.00;;;;;;10360283;28;20234;-75
2022/03/30 12:12:03;;;;;;;13.67;7.13;;;14.90;32.00;;;;;;10354005;28;20273;-75
2022/03/30 12:17:07;;;;;;;11.30;5.80;;;14.80;31.90;;;;;;10356226;28;20238;-75
2022/03/30 12:22:16;;;;;;;12.40;6.13;;;14.80;31.90;;;;;;10354078;28;20511;-75
2022/03/30 12:27:19;;;;;;;15.53;6.43;;;14.70;31.80;;;;;;10352111;28;20703;-74
2022/03/30 12:32:24;;;;;;;16.73;8.77;;;14.70;31.80;;;;;;10354860;28;20239;-74
2022/03/30 12:37:28;;;;;;;16.50;7.57;;;14.70;31.80;;;;;;10355812;28;20237;-74
2022/03/30 12:42:34;;;;;;;13.83;6.70;;;14.70;32.30;;;;;;10357792;28;20241;-74
2022/03/30 12:47:39;;;;;;;16.33;8.37;;;14.60;32.40;;;;;;10358574;28;20222;-74
2022/03/30 12:52:48;;;;;;;14.17;6.63;;;14.60;32.30;;;;;;10359144;28;20233;-73
2022/03/30 12:57:57;;;;;;;19.10;8.60;;;14.60;33.10;;;;;;10357511;28;20648;-73
2022/03/30 13:03:10;;;;;;;15.70;7.30;;;14.60;34.50;;;;;;10351770;28;20258;-74
2022/03/30 13:08:18;;;;;;;17.10;8.47;;;14.60;33.70;;;;;;10350347;28;20226;-73
2022/03/30 13:13:23;;;;;;;13.43;7.13;;;14.70;33.40;;;;;;10346255;28;20582;-73
2022/03/30 13:18:27;;;;;;;13.77;6.60;;;14.70;32.80;;;;;;10352106;28;20330;-75
2022/03/30 13:23:41;;;;;;;10.60;6.53;;;14.60;32.50;;;;;;10343989;28;20238;-75
2022/03/30 13:28:44;;;;;;;15.63;7.27;;;14.50;34.70;;;;;;10346090;28;20235;-75
2022/03/30 13:33:48;;;;;;;12.37;7.50;;;14.50;33.20;;;;;;10342847;28;20226;-73
2022/03/30 13:38:54;;;;;;;14.20;7.27;;;14.50;33.50;;;;;;10340709;28;20233;-75
2022/03/30 13:44:04;;;;;;;13.70;7.43;;;14.50;34.40;;;;;;10343439;28;20230;-79
2022/03/30 13:49:08;;;;;;;15.57;7.87;;;14.40;34.00;;;;;;10341273;28;20242;-76
2022/03/30 13:54:12;;;;;;;13.13;7.17;;;14.50;33.70;;;;;;10339797;28;20222;-76
2022/03/30 13:59:16;;;;;;;13.77;7.90;;;14.50;34.30;;;;;;10340597;28;20246;-74
2022/03/30 14:04:21;;;;;;;8.80;6.67;;;14.60;33.70;;;;;;10340699;28;20326;-77
2022/03/30 14:09:28;;;;;;;11.30;6.50;;;14.60;33.00;;;;;;10341296;28;20257;-76
2022/03/30 14:14:31;;;;;;;10.60;6.70;;;14.60;33.40;;;;;;10342745;28;20234;-76
2022/03/30 14:19:35;;;;;;;9.30;7.07;;;14.60;33.10;;;;;;10345100;28;20237;-75
2022/03/30 14:24:40;;;;;;;9.20;6.87;;;14.70;33.00;;;;;;10342889;28;20223;-77
2022/03/30 14:29:43;;;;;;;8.17;6.40;;;14.70;33.40;;;;;;10353819;28;20322;-75
2022/03/30 14:34:48;;;;;;;13.47;7.20;;;14.70;33.20;;;;;;10348369;28;20230;-75
2022/03/30 14:39:52;;;;;;;9.40;7.27;;;14.80;33.30;;;;;;10339955;28;20257;-75
2022/03/30 14:44:56;;;;;;;9.83;6.47;;;14.80;33.80;;;;;;10348838;28;20231;-78
2022/03/30 14:49:59;;;;;;;9.80;7.80;;;14.80;33.50;;;;;;10345626;28;20255;-77
2022/03/30 14:55:04;;;;;;;3.60;2.77;;;14.80;33.00;;;;;;10349113;28;20235;-77
2022/03/30 15:00:10;;;;;;;3.10;2.20;;;14.80;32.60;;;;;;10345422;28;20745;-77
2022/03/30 15:05:15;;;;;;;3.30;2.03;;;14.70;32.50;;;;;;10343969;28;20249;-77
2022/03/30 15:10:20;;;;;;;2.87;1.97;;;14.50;32.40;;;;;;10331983;28;20767;-77
2022/03/30 15:15:23;;;;;;;3.07;2.20;;;14.30;32.70;;;;;;10343184;28;20708;-79
2022/03/30 15:20:28;;;;;;;3.27;2.70;;;14.20;32.90;;;;;;10339984;28;20234;-77
2022/03/30 15:25:34;;;;;;;4.30;2.47;;;14.00;32.90;;;;;;10330895;28;20234;-77
2022/03/30 15:30:38;;;;;;;4.27;2.50;;;13.90;33.70;;;;;;10339430;28;20245;-72
2022/03/30 15:35:42;;;;;;;3.53;2.60;;;13.90;33.50;;;;;;10334458;28;20238;-72
2022/03/30 15:40:47;;;;;;;4.07;3.20;;;13.90;33.40;;;;;;10337660;28;20241;-72
2022/03/30 15:45:50;;;;;;;5.67;4.47;;;13.90;34.10;;;;;;10336270;28;20226;-73
2022/03/30 15:50:54;;;;;;;3.57;3.20;;;13.90;33.80;;;;;;10336883;28;20242;-75
2022/03/30 15:55:59;;;;;;;4.77;3.90;;;13.80;33.80;;;;;;10336315;28;20242;-75
2022/03/30 16:01:03;;;;;;;3.00;2.70;;;13.90;34.80;;;;;;10337327;28;20237;-76
2022/03/30 16:06:07;;;;;;;3.90;3.60;;;13.90;34.30;;;;;;10338415;28;20328;-75
2022/03/30 16:16:33;;;;;;;3.23;2.93;;;14.00;34.90;;;;;;10336230;28;20231;-75
2022/03/30 16:21:38;;;;;;;3.77;2.30;;;14.10;34.70;;;;;;10342272;28;20242;-78
2022/03/30 16:26:43;;;;;;;3.47;2.70;;;14.20;35.20;;;;;;10343957;28;20885;-75
2022/03/30 16:31:47;;;;;;;2.97;2.67;;;14.30;35.40;;;;;;10343932;28;20231;-75
2022/03/30 16:36:52;;;;;;;3.90;3.43;;;14.30;34.70;;;;;;10334855;28;20231;-75
2022/03/30 16:41:59;;;;;;;7.87;6.70;;;14.30;34.50;;;;;;10334151;28;20267;-75
2022/03/30 16:47:04;;;;;;;5.57;4.87;;;14.40;35.20;;;;;;10339635;28;20534;-76
2022/03/30 16:52:08;;;;;;;6.20;4.70;;;14.40;34.60;;;;;;10341180;28;20317;-75
2022/03/30 16:57:12;;;;;;;3.60;3.30;;;14.40;34.80;;;;;;10339127;28;20441;-75
2022/03/30 17:02:16;;;;;;;3.63;3.30;;;14.30;35.40;;;;;;10340087;28;20230;-76
2022/03/30 17:07:19;;;;;;;4.63;4.10;;;14.30;34.90;;;;;;10342410;28;20227;-76
2022/03/30 17:12:24;;;;;;;4.93;3.93;;;14.20;34.90;;;;;;10346304;28;20243;-81
2022/03/30 17:17:30;;;;;;;9.87;8.73;;;14.20;35.50;;;;;;10352167;28;20602;-77
2022/03/30 17:22:38;;;;;;;5.97;5.37;;;14.30;35.20;;;;;;10321952;28;20301;-77
2022/03/30 17:27:42;;;;;;;4.73;4.23;;;14.30;35.20;;;;;;10342879;28;20229;-80
2022/03/30 17:32:45;;;;;;;5.50;3.60;;;14.30;35.70;;;;;;10353662;28;20245;-77
2022/03/30 17:43:08;;;;;;;5.47;4.63;;;14.40;35.90;;;;;;10394881;28;20312;-79
2022/03/30 17:53:33;;;;;;;10.27;6.60;;;14.40;35.30;;;;;;10400967;28;20236;-79
2022/03/30 17:58:38;;;;;;;8.53;6.10;;;14.40;35.50;;;;;;10407539;28;20276;-79
2022/03/30 18:03:41;;;;;;;6.57;5.70;;;14.30;35.70;;;;;;10399659;28;20241;-79
2022/03/30 18:08:45;;;;;;;7.83;5.37;;;14.20;35.40;;;;;;10402483;28;20230;-79
2022/03/30 18:13:53;;;;;;;6.67;5.80;;;14.10;35.40;;;;;;10400881;28;20240;-79
2022/03/30 18:18:56;;;;;;;6.20;5.60;;;14.00;36.00;;;;;;10397811;28;20237;-78
2022/03/30 18:24:00;;;;;;;7.57;6.47;;;13.90;35.70;;;;;;10395765;28;20320;-78
2022/03/30 18:29:05;;;;;;;7.33;6.20;;;13.90;35.70;;;;;;10395137;28;20241;-76
2022/03/30 18:34:15;;;;;;;7.13;5.13;;;13.90;36.30;;;;;;10397066;28;20758;-78
2022/03/30 18:39:18;;;;;;;7.33;6.40;;;13.80;35.80;;;;;;10398053;28;20239;-79
2022/03/30 18:44:23;;;;;;;5.73;5.10;;;13.70;36.10;;;;;;10401056;28;20723;-79
2022/03/30 18:49:26;;;;;;;8.60;6.13;;;13.60;36.60;;;;;;10398084;28;20233;-79
2022/03/30 18:54:29;;;;;;;8.40;7.00;;;13.60;36.20;;;;;;10404356;28;20229;-78
2022/03/30 18:59:34;;;;;;;10.00;8.10;;;13.60;36.30;;;;;;10408140;28;20222;-80
2022/03/30 19:04:37;;;;;;;8.40;7.50;;;13.60;37.00;;;;;;10399948;28;20256;-81
2022/03/30 19:09:40;;;;;;;7.20;6.33;;;13.60;36.50;;;;;;10425374;28;20293;-80
2022/03/30 19:14:46;;;;;;;7.27;6.20;;;13.60;36.30;;;;;;10402162;28;20279;-80
2022/03/30 19:19:50;;;;;;;7.80;6.10;;;13.60;37.00;;;;;;10421956;28;20301;-79
2022/03/30 19:24:53;;;;;;;6.80;5.87;;;13.70;36.50;;;;;;10400630;28;20238;-79
2022/03/30 19:29:57;;;;;;;6.30;5.70;;;13.70;36.50;;;;;;10383753;28;20771;-78
2022/03/30 19:35:02;;;;;;;6.13;5.07;;;13.70;37.10;;;;;;10408328;28;20229;-77
2022/03/30 19:40:06;;;;;;;6.70;4.40;;;13.70;36.90;;;;;;10403580;28;20236;-79
2022/03/30 19:45:16;;;;;;;6.40;4.23;;;13.70;36.50;;;;;;10414315;28;20241;-79
2022/03/30 19:50:20;;;;;;;5.07;4.03;;;13.70;36.70;;;;;;10400216;28;20685;-76
2022/03/30 19:55:36;;;;;;;4.23;3.83;;;13.70;36.40;;;;;;10377826;28;20226;-77
2022/03/30 20:01:01;;;;;;;5.20;3.93;;;13.60;37.30;;;;;;10376979;28;20234;-77
2022/03/30 20:06:04;;;;;;;3.77;3.43;;;13.60;36.60;;;;;;10377321;28;20234;-77
2022/03/30 20:11:11;;;;;;;4.07;3.60;;;13.60;36.10;;;;;;10376976;28;20235;-76
2022/03/30 20:16:16;;;;;;;4.20;3.80;;;13.60;36.60;;;;;;10375972;28;20304;-76
2022/03/30 20:21:19;;;;;;;3.93;3.60;;;13.50;36.30;;;;;;10376121;28;20660;-76
2022/03/30 20:26:25;;;;;;;4.07;3.73;;;13.50;36.00;;;;;;10376251;28;20241;-76
2022/03/30 20:31:32;;;;;;;5.80;5.20;;;13.50;36.10;;;;;;10376319;28;20226;-76
2022/03/30 20:36:36;;;;;;;5.97;5.37;;;13.40;37.30;;;;;;10375574;28;20234;-77
2022/03/30 20:41:39;;;;;;;7.40;6.70;;;13.40;36.30;;;;;;10375567;28;20234;-77
2022/03/30 20:46:43;;;;;;;9.50;8.60;;;13.30;36.40;;;;;;10375001;28;20714;-77
2022/03/30 20:52:11;;;;;;;11.10;10.00;;;13.20;36.80;;;;;;10375233;28;20257;-77
2022/03/30 20:57:15;;;;;;;13.60;12.30;;;13.20;36.70;;;;;;10372137;28;20245;-76
2022/03/30 21:02:19;;;;;;;13.53;12.23;;;13.20;36.80;;;;;;10370548;28;20250;-75
2022/03/30 21:07:23;;;;;;;12.83;11.53;;;13.10;37.40;;;;;;10369865;28;20234;-76
2022/03/30 21:12:26;;;;;;;11.90;10.80;;;13.00;37.10;;;;;;10369212;28;20245;-76
2022/03/30 21:17:31;;;;;;;12.07;10.97;;;12.90;37.30;;;;;;10369137;28;20754;-76
2022/03/30 21:22:34;;;;;;;11.30;10.20;;;12.70;37.90;;;;;;10369201;28;20230;-75
2022/03/30 21:27:37;;;;;;;10.57;9.57;;;12.70;37.30;;;;;;10368808;28;20234;-76
2022/03/30 21:32:42;;;;;;;11.10;10.03;;;12.60;37.20;;;;;;10368522;28;20594;-76
2022/03/30 21:37:47;;;;;;;12.20;11.10;;;12.60;37.80;;;;;;10368321;28;20233;-76
2022/03/30 21:42:51;;;;;;;12.60;11.40;;;12.50;38.20;;;;;;10368594;28;20257;-76
2022/03/30 21:47:57;;;;;;;11.83;10.73;;;12.50;38.00;;;;;;10368873;28;20749;-76
2022/03/30 21:53:00;;;;;;;11.80;10.80;;;12.50;38.10;;;;;;10367992;28;20738;-76
2022/03/30 21:58:03;;;;;;;12.00;10.90;;;12.40;37.60;;;;;;10367809;28;20244;-76
2022/03/30 22:03:10;;;;;;;11.67;10.60;;;12.40;37.80;;;;;;10368167;28;20302;-76
2022/03/30 22:08:13;;;;;;;11.10;10.07;;;12.30;39.00;;;;;;10367375;28;20265;-76
2022/03/30 22:13:20;;;;;;;13.20;11.80;;;12.20;38.40;;;;;;10367661;28;20248;-76
2022/03/30 22:18:27;;;;;;;11.63;10.53;;;12.10;39.80;;;;;;10366998;28;20236;-76
2022/03/30 22:23:31;;;;;;;14.10;12.80;;;12.00;39.70;;;;;;10367341;28;20242;-76
2022/03/30 22:28:35;;;;;;;15.97;14.37;;;11.90;39.00;;;;;;10367407;28;20725;-76
2022/03/30 22:39:00;;;;;;;16.20;14.70;;;12.00;39.30;;;;;;10368260;28;20230;-76
2022/03/30 22:44:03;;;;;;;16.50;14.90;;;11.90;38.80;;;;;;10368450;28;20309;-76
2022/03/30 22:49:08;;;;;;;15.93;14.33;;;11.90;38.80;;;;;;10368479;28;20234;-76
2022/03/30 22:54:11;;;;;;;14.93;13.47;;;11.90;39.60;;;;;;10367180;28;20234;-76
2022/03/30 22:59:15;;;;;;;15.87;14.37;;;11.90;39.00;;;;;;10368081;28;20244;-76
2022/03/30 23:04:20;;;;;;;15.20;13.80;;;11.90;39.40;;;;;;10367847;28;20274;-76
2022/03/30 23:09:23;;;;;;;13.87;12.57;;;11.80;39.40;;;;;;10367434;28;20249;-76
2022/03/30 23:14:27;;;;;;;13.87;12.47;;;11.90;39.10;;;;;;10366074;28;20236;-76
2022/03/30 23:19:32;;;;;;;12.40;11.20;;;11.80;39.40;;;;;;10367037;28;20242;-76
2022/03/30 23:24:36;;;;;;;12.50;11.30;;;11.80;39.50;;;;;;10367760;28;20238;-76
2022/03/30 23:29:41;;;;;;;11.53;10.50;;;11.80;38.90;;;;;;10374215;28;20230;-76
2022/03/30 23:34:46;;;;;;;11.83;10.73;;;11.80;38.80;;;;;;10372667;28;20317;-76
2022/03/30 23:39:49;;;;;;;11.93;10.83;;;11.90;39.30;;;;;;10374834;28;20229;-76
2022/03/30 23:44:52;;;;;;;11.27;10.23;;;11.90;38.80;;;;;;10374974;28;20260;-76
2022/03/30 23:49:57;;;;;;;11.70;10.60;;;11.90;38.70;;;;;;10374957;28;20230;-76
2022/03/30 23:55:02;;;;;;;11.37;10.37;;;12.00;39.10;;;;;;10374576;28;20236;-76
